Time;durP1;ratioP1;P1;durP2;ratioP2;P2;SDS_P1;SDS_P2;PMS_P1;PMS_P2;Temp;Humidity;BMP_temperature;BMP_pressure;BME280_temperature;BME280_humidity;BME280_pressure;Samples;Min_cycle;Max_cycle;Signal;HPM_P1;HPM_P2
2023/08/22 00:00:50;;;;;;;14.95;4.43;;;;;;;;;;5044493;28;20029;-67
2023/08/22 00:03:16;;;;;;;7.55;3.53;;;;;;;;;;5047199;28;20040;-67
2023/08/22 00:05:42;;;;;;;6.25;3.17;;;;;;;;;;5049024;28;20028;-67
2023/08/22 00:08:09;;;;;;;8.80;3.30;;;;;;;;;;5054255;28;20028;-67
2023/08/22 00:10:36;;;;;;;8.98;4.13;;;;;;;;;;5051539;28;20113;-68
2023/08/22 00:13:03;;;;;;;4.75;3.40;;;;;;;;;;5050659;28;21231;-67
2023/08/22 00:15:29;;;;;;;8.05;3.80;;;;;;;;;;5054026;28;20036;-67
2023/08/22 00:17:55;;;;;;;7.65;4.28;;;;;;;;;;5051658;28;20132;-67
2023/08/22 00:20:22;;;;;;;10.05;5.38;;;;;;;;;;5052261;28;20889;-67
2023/08/22 00:22:48;;;;;;;9.00;5.38;;;;;;;;;;5052121;28;20226;-67
2023/08/22 00:25:14;;;;;;;9.27;5.80;;;;;;;;;;5052032;28;20028;-67
2023/08/22 00:27:40;;;;;;;9.38;4.88;;;;;;;;;;5049914;28;20039;-67
2023/08/22 00:30:07;;;;;;;8.80;5.40;;;;;;;;;;5049956;28;20039;-67
2023/08/22 00:32:34;;;;;;;8.40;5.03;;;;;;;;;;5054867;28;20027;-67
2023/08/22 00:35:00;;;;;;;8.60;4.60;;;;;;;;;;5053065;28;20029;-67
2023/08/22 00:37:26;;;;;;;7.47;4.18;;;;;;;;;;5054230;28;20118;-67
2023/08/22 00:39:52;;;;;;;7.30;4.00;;;;;;;;;;5051409;28;20037;-67
2023/08/22 00:42:18;;;;;;;7.90;3.50;;;;;;;;;;5049030;28;20209;-67
2023/08/22 00:44:44;;;;;;;6.95;4.25;;;;;;;;;;5051162;28;20043;-67
2023/08/22 00:47:10;;;;;;;9.85;4.85;;;;;;;;;;5051286;28;20054;-67
2023/08/22 00:49:37;;;;;;;8.40;4.80;;;;;;;;;;5049041;28;20032;-67
2023/08/22 00:52:03;;;;;;;8.60;4.90;;;;;;;;;;5052505;28;20097;-67
2023/08/22 00:54:30;;;;;;;11.85;5.70;;;;;;;;;;5051582;28;20036;-67
2023/08/22 00:56:57;;;;;;;12.43;6.93;;;;;;;;;;5047878;28;20052;-67
2023/08/22 00:59:23;;;;;;;13.77;7.85;;;;;;;;;;5051592;28;20039;-67
2023/08/22 01:01:49;;;;;;;10.77;6.88;;;;;;;;;;5049909;28;20999;-67
2023/08/22 01:04:15;;;;;;;13.93;6.43;;;;;;;;;;5053270;28;20782;-67
2023/08/22 01:06:41;;;;;;;12.55;6.28;;;;;;;;;;5052226;28;20040;-67
2023/08/22 01:09:19;;;;;;;11.90;7.97;;;;;;;;;;5053583;28;20483;-68
2023/08/22 01:11:46;;;;;;;12.07;6.70;;;;;;;;;;5047408;28;20466;-67
2023/08/22 01:14:14;;;;;;;10.27;6.35;;;;;;;;;;5049178;28;20040;-67
2023/08/22 01:16:41;;;;;;;8.23;5.78;;;;;;;;;;5050436;28;20075;-67
2023/08/22 01:19:08;;;;;;;9.52;5.93;;;;;;;;;;5050213;28;20036;-67
2023/08/22 01:21:35;;;;;;;7.47;3.67;;;;;;;;;;5049748;28;20032;-67
2023/08/22 01:24:03;;;;;;;5.72;2.80;;;;;;;;;;5053257;28;20032;-67
2023/08/22 01:26:29;;;;;;;5.15;2.60;;;;;;;;;;5053311;28;20043;-68
2023/08/22 01:28:58;;;;;;;7.22;3.30;;;;;;;;;;5054088;28;20142;-67
2023/08/22 01:31:33;;;;;;;5.90;3.05;;;;;;;;;;5051430;28;20032;-67
2023/08/22 01:34:02;;;;;;;7.00;3.92;;;;;;;;;;5051655;28;20081;-67
2023/08/22 01:36:29;;;;;;;7.90;4.93;;;;;;;;;;5052170;28;21050;-67
2023/08/22 01:38:55;;;;;;;9.52;4.60;;;;;;;;;;5050989;28;20128;-67
2023/08/22 01:41:23;;;;;;;8.27;4.68;;;;;;;;;;5051211;28;20805;-67
2023/08/22 01:43:52;;;;;;;7.72;4.63;;;;;;;;;;5050950;28;20029;-67
2023/08/22 01:46:18;;;;;;;8.75;4.35;;;;;;;;;;5052861;28;20056;-67
2023/08/22 01:48:44;;;;;;;7.57;3.97;;;;;;;;;;5053009;28;20051;-67
2023/08/22 01:51:10;;;;;;;8.25;4.38;;;;;;;;;;5054821;28;20059;-67
2023/08/22 01:53:36;;;;;;;7.20;5.05;;;;;;;;;;5052984;28;21397;-67
2023/08/22 01:56:02;;;;;;;9.82;4.88;;;;;;;;;;5053588;28;20705;-67
2023/08/22 01:58:29;;;;;;;9.45;4.57;;;;;;;;;;5054379;28;20027;-68
2023/08/22 02:00:55;;;;;;;6.88;4.28;;;;;;;;;;5047757;28;20950;-67
2023/08/22 02:03:21;;;;;;;6.65;4.55;;;;;;;;;;5049727;28;20040;-67
2023/08/22 02:05:47;;;;;;;9.13;5.63;;;;;;;;;;5051470;28;20039;-67
2023/08/22 02:08:14;;;;;;;7.50;4.53;;;;;;;;;;5047945;28;20032;-67
2023/08/22 02:10:40;;;;;;;7.75;4.45;;;;;;;;;;5051834;28;20034;-67
2023/08/22 02:13:06;;;;;;;6.30;4.03;;;;;;;;;;5048632;28;20131;-67
2023/08/22 02:15:32;;;;;;;7.80;4.75;;;;;;;;;;5048746;28;20046;-67
2023/08/22 02:17:58;;;;;;;6.93;4.75;;;;;;;;;;5052701;28;20024;-67
2023/08/22 02:20:25;;;;;;;10.88;5.53;;;;;;;;;;5052683;28;20063;-67
2023/08/22 02:22:51;;;;;;;8.57;5.13;;;;;;;;;;5039041;28;20036;-67
2023/08/22 02:25:17;;;;;;;9.65;5.28;;;;;;;;;;5050464;28;20036;-67
2023/08/22 02:27:43;;;;;;;7.88;4.50;;;;;;;;;;5051831;28;20528;-67
2023/08/22 02:30:10;;;;;;;10.32;5.60;;;;;;;;;;5049934;28;20032;-67
2023/08/22 02:32:36;;;;;;;9.60;5.60;;;;;;;;;;5051596;28;20036;-67
2023/08/22 02:35:03;;;;;;;8.43;4.47;;;;;;;;;;5049855;28;20032;-67
2023/08/22 02:37:29;;;;;;;7.60;4.20;;;;;;;;;;5053437;28;20168;-67
2023/08/22 02:39:55;;;;;;;8.50;4.63;;;;;;;;;;5051307;28;20028;-67
2023/08/22 02:42:22;;;;;;;11.07;5.47;;;;;;;;;;5050760;28;20375;-67
2023/08/22 02:44:48;;;;;;;8.80;5.22;;;;;;;;;;5049798;28;20094;-67
2023/08/22 02:47:14;;;;;;;8.18;5.18;;;;;;;;;;5053151;28;20051;-67
2023/08/22 02:49:40;;;;;;;7.63;5.00;;;;;;;;;;5051888;28;20053;-67
2023/08/22 02:52:07;;;;;;;9.48;5.97;;;;;;;;;;5048581;28;20729;-67
2023/08/22 02:54:33;;;;;;;9.10;5.75;;;;;;;;;;5046991;28;20043;-67
2023/08/22 02:56:59;;;;;;;9.20;5.93;;;;;;;;;;5052528;28;21252;-67
2023/08/22 02:59:25;;;;;;;8.07;4.97;;;;;;;;;;5048532;28;20103;-67
2023/08/22 03:01:51;;;;;;;12.05;6.20;;;;;;;;;;5048504;28;20942;-67
2023/08/22 03:04:17;;;;;;;9.57;6.03;;;;;;;;;;5048663;28;20034;-67
2023/08/22 03:06:43;;;;;;;11.48;6.40;;;;;;;;;;5047417;28;20069;-67
2023/08/22 03:09:09;;;;;;;8.95;5.20;;;;;;;;;;5048271;28;20028;-67
2023/08/22 03:11:35;;;;;;;10.68;6.35;;;;;;;;;;5052882;28;20047;-67
2023/08/22 03:14:01;;;;;;;9.55;5.30;;;;;;;;;;5050507;28;20032;-67
2023/08/22 03:16:27;;;;;;;9.38;5.65;;;;;;;;;;5050553;28;20073;-67
2023/08/22 03:18:53;;;;;;;7.97;4.47;;;;;;;;;;5047792;28;20043;-67
2023/08/22 03:21:19;;;;;;;5.60;3.38;;;;;;;;;;5048436;28;20193;-67
2023/08/22 03:23:45;;;;;;;6.38;4.30;;;;;;;;;;5046849;28;20040;-67
2023/08/22 03:26:12;;;;;;;8.63;4.53;;;;;;;;;;5050038;28;20520;-67
2023/08/22 03:28:38;;;;;;;8.20;4.63;;;;;;;;;;5050407;28;20025;-67
2023/08/22 03:31:04;;;;;;;7.25;4.80;;;;;;;;;;5049383;28;21460;-67
2023/08/22 03:33:31;;;;;;;8.18;4.32;;;;;;;;;;5044567;28;20038;-67
2023/08/22 03:35:57;;;;;;;7.45;4.68;;;;;;;;;;5048629;28;20038;-67
2023/08/22 03:38:24;;;;;;;8.38;4.97;;;;;;;;;;5045295;28;20126;-67
2023/08/22 03:40:51;;;;;;;10.77;4.97;;;;;;;;;;5049448;28;20040;-67
2023/08/22 03:43:18;;;;;;;7.35;4.50;;;;;;;;;;5050311;28;20040;-67
2023/08/22 03:45:45;;;;;;;5.95;3.92;;;;;;;;;;5053767;28;20075;-67
2023/08/22 03:48:11;;;;;;;6.85;4.05;;;;;;;;;;5052336;28;20115;-67
2023/08/22 03:50:40;;;;;;;6.80;3.90;;;;;;;;;;5051664;28;20040;-67
2023/08/22 03:53:06;;;;;;;4.95;3.08;;;;;;;;;;5053339;28;20102;-67
2023/08/22 03:55:32;;;;;;;4.75;2.35;;;;;;;;;;5052215;28;20120;-67
2023/08/22 03:57:58;;;;;;;6.55;2.92;;;;;;;;;;5052108;28;20491;-67
2023/08/22 04:00:28;;;;;;;6.45;3.63;;;;;;;;;;5050993;28;22114;-67
2023/08/22 04:02:55;;;;;;;8.98;4.55;;;;;;;;;;5051440;28;20033;-67
2023/08/22 04:05:21;;;;;;;8.35;4.18;;;;;;;;;;5052484;28;20024;-67
2023/08/22 04:07:47;;;;;;;6.55;3.67;;;;;;;;;;5050200;28;20045;-67
2023/08/22 04:10:13;;;;;;;5.97;3.75;;;;;;;;;;5054752;28;20032;-67
2023/08/22 04:12:39;;;;;;;5.78;2.33;;;;;;;;;;5052392;28;20930;-67
2023/08/22 04:15:05;;;;;;;5.13;2.03;;;;;;;;;;5050387;28;20368;-67
2023/08/22 04:17:31;;;;;;;3.40;1.83;;;;;;;;;;5050242;28;20619;-67
2023/08/22 04:19:57;;;;;;;6.13;2.88;;;;;;;;;;5051169;28;20036;-67
2023/08/22 04:22:24;;;;;;;6.65;3.13;;;;;;;;;;5051763;28;20097;-67
2023/08/22 04:24:50;;;;;;;7.25;3.13;;;;;;;;;;5051617;28;20024;-67
2023/08/22 04:27:16;;;;;;;6.50;3.20;;;;;;;;;;5052232;28;20023;-67
2023/08/22 04:29:44;;;;;;;5.43;3.63;;;;;;;;;;5050655;28;20039;-67
2023/08/22 04:32:10;;;;;;;7.32;3.83;;;;;;;;;;5050318;28;20028;-67
2023/08/22 04:34:36;;;;;;;6.60;3.83;;;;;;;;;;5051452;28;20029;-67
2023/08/22 04:37:02;;;;;;;8.27;3.95;;;;;;;;;;5050598;28;20032;-67
2023/08/22 04:39:31;;;;;;;6.88;4.78;;;;;;;;;;5050968;28;20127;-67
2023/08/22 04:41:57;;;;;;;10.25;5.43;;;;;;;;;;5050418;28;20117;-67
2023/08/22 04:44:23;;;;;;;8.52;4.85;;;;;;;;;;5051745;28;20067;-67
2023/08/22 04:46:50;;;;;;;9.35;5.05;;;;;;;;;;5052386;28;20044;-67
2023/08/22 04:49:16;;;;;;;9.65;5.50;;;;;;;;;;5052718;28;20028;-67
2023/08/22 04:51:42;;;;;;;7.30;4.72;;;;;;;;;;5054182;28;20028;-67
2023/08/22 04:54:08;;;;;;;11.10;5.45;;;;;;;;;;5055377;28;20374;-67
2023/08/22 04:56:34;;;;;;;10.70;5.90;;;;;;;;;;5055657;28;20159;-67
2023/08/22 04:59:00;;;;;;;10.80;6.03;;;;;;;;;;5054765;28;20068;-67
2023/08/22 05:01:26;;;;;;;9.80;5.70;;;;;;;;;;5053838;28;20071;-67
2023/08/22 05:03:52;;;;;;;9.13;6.28;;;;;;;;;;5053636;28;20126;-67
2023/08/22 05:06:18;;;;;;;9.55;5.85;;;;;;;;;;5052719;28;20040;-67
2023/08/22 05:08:44;;;;;;;11.07;6.68;;;;;;;;;;5054423;28;20020;-67
2023/08/22 05:11:10;;;;;;;13.02;6.20;;;;;;;;;;5052674;28;20604;-67
2023/08/22 05:13:36;;;;;;;10.30;5.95;;;;;;;;;;5053767;28;20110;-67
2023/08/22 05:16:02;;;;;;;9.23;5.75;;;;;;;;;;5053944;28;20040;-67
2023/08/22 05:18:29;;;;;;;8.75;5.40;;;;;;;;;;5053979;28;20051;-68
2023/08/22 05:20:55;;;;;;;11.40;6.50;;;;;;;;;;5054552;28;20035;-66
2023/08/22 05:23:21;;;;;;;10.80;6.03;;;;;;;;;;5054435;28;20067;-66
2023/08/22 05:25:47;;;;;;;9.40;5.55;;;;;;;;;;5054912;28;20032;-67
2023/08/22 05:28:13;;;;;;;11.60;6.47;;;;;;;;;;5052277;28;20028;-66
2023/08/22 05:30:39;;;;;;;12.13;5.78;;;;;;;;;;5049499;28;20024;-66
2023/08/22 05:33:06;;;;;;;11.43;6.53;;;;;;;;;;5046641;28;20016;-67
2023/08/22 05:35:32;;;;;;;11.68;6.15;;;;;;;;;;5051854;28;20028;-66
2023/08/22 05:37:58;;;;;;;9.82;5.88;;;;;;;;;;5050584;28;20074;-66
2023/08/22 05:40:25;;;;;;;10.63;6.75;;;;;;;;;;5052560;28;20063;-66
2023/08/22 05:42:51;;;;;;;9.10;6.05;;;;;;;;;;5051363;28;20032;-66
2023/08/22 05:45:17;;;;;;;12.23;6.93;;;;;;;;;;5050368;28;20093;-66
2023/08/22 05:47:44;;;;;;;12.02;6.70;;;;;;;;;;5053237;28;20232;-66
2023/08/22 05:50:10;;;;;;;15.73;6.78;;;;;;;;;;5054618;28;20084;-66
2023/08/22 05:52:36;;;;;;;11.45;5.80;;;;;;;;;;5051974;28;20028;-66
2023/08/22 05:55:06;;;;;;;8.60;6.15;;;;;;;;;;5051557;28;20032;-66
2023/08/22 05:57:32;;;;;;;9.40;5.43;;;;;;;;;;5051342;28;20471;-67
2023/08/22 05:59:59;;;;;;;10.80;6.03;;;;;;;;;;5052387;28;20052;-66
2023/08/22 06:02:25;;;;;;;12.88;6.32;;;;;;;;;;5054451;28;20055;-66
2023/08/22 06:04:51;;;;;;;10.80;5.45;;;;;;;;;;5053172;28;20042;-66
2023/08/22 06:07:17;;;;;;;8.23;5.78;;;;;;;;;;5052066;28;20066;-66
2023/08/22 06:09:44;;;;;;;13.02;6.55;;;;;;;;;;5051345;28;20024;-66
2023/08/22 06:12:11;;;;;;;11.73;5.97;;;;;;;;;;5049035;28;20032;-66
2023/08/22 06:14:38;;;;;;;11.27;6.38;;;;;;;;;;5048962;28;20040;-66
2023/08/22 06:17:04;;;;;;;10.82;6.43;;;;;;;;;;5052850;28;20078;-66
2023/08/22 06:19:30;;;;;;;12.48;6.65;;;;;;;;;;5054782;28;20073;-66
2023/08/22 06:21:56;;;;;;;10.10;6.32;;;;;;;;;;5046300;28;20041;-66
2023/08/22 06:24:22;;;;;;;11.65;6.63;;;;;;;;;;5049146;28;20450;-67
2023/08/22 06:26:48;;;;;;;9.80;5.68;;;;;;;;;;5049560;28;20028;-66
2023/08/22 06:29:15;;;;;;;11.48;6.35;;;;;;;;;;5051439;28;20100;-66
2023/08/22 06:31:41;;;;;;;11.27;5.72;;;;;;;;;;5052191;28;20454;-66
2023/08/22 06:34:07;;;;;;;10.18;6.32;;;;;;;;;;5053099;28;20434;-66
2023/08/22 06:36:33;;;;;;;10.65;6.47;;;;;;;;;;5053063;28;20037;-67
2023/08/22 06:39:00;;;;;;;9.55;5.80;;;;;;;;;;5052350;28;20117;-66
2023/08/22 06:41:27;;;;;;;10.55;5.75;;;;;;;;;;5054229;28;21700;-66
2023/08/22 06:43:53;;;;;;;10.93;6.30;;;;;;;;;;5050640;28;20036;-66
2023/08/22 06:46:21;;;;;;;13.93;6.97;;;;;;;;;;5051238;28;20513;-66
2023/08/22 06:48:48;;;;;;;9.18;5.80;;;;;;;;;;5052092;28;20064;-66
2023/08/22 06:51:14;;;;;;;10.90;5.90;;;;;;;;;;5052485;28;20093;-66
2023/08/22 06:53:40;;;;;;;11.88;5.35;;;;;;;;;;5051567;28;20717;-66
2023/08/22 06:56:06;;;;;;;11.20;5.72;;;;;;;;;;5049782;28;20518;-66
2023/08/22 06:58:33;;;;;;;11.63;6.65;;;;;;;;;;5048061;28;20040;-66
2023/08/22 07:00:59;;;;;;;12.63;6.10;;;;;;;;;;5051592;28;21877;-66
2023/08/22 07:03:25;;;;;;;8.27;5.63;;;;;;;;;;5050917;28;20691;-66
2023/08/22 07:05:52;;;;;;;9.13;5.47;;;;;;;;;;5051573;28;20028;-66
2023/08/22 07:08:19;;;;;;;10.52;5.82;;;;;;;;;;5050090;28;20115;-66
2023/08/22 07:10:45;;;;;;;12.98;5.35;;;;;;;;;;5050614;28;20024;-66
2023/08/22 07:13:11;;;;;;;12.45;6.00;;;;;;;;;;5052183;28;20107;-66
2023/08/22 07:15:37;;;;;;;11.25;7.10;;;;;;;;;;5050597;28;20047;-66
2023/08/22 07:18:03;;;;;;;13.98;5.88;;;;;;;;;;5050391;28;20051;-66
2023/08/22 07:20:29;;;;;;;12.00;5.85;;;;;;;;;;5049233;28;20082;-66
2023/08/22 07:22:55;;;;;;;10.80;5.70;;;;;;;;;;5050318;28;20031;-66
2023/08/22 07:25:21;;;;;;;11.90;5.55;;;;;;;;;;5052108;28;20090;-66
2023/08/22 07:27:47;;;;;;;12.13;5.65;;;;;;;;;;5052231;28;20213;-66
2023/08/22 07:30:14;;;;;;;9.32;4.88;;;;;;;;;;5052565;28;20040;-66
2023/08/22 07:32:40;;;;;;;9.80;5.82;;;;;;;;;;5053221;28;20064;-66
2023/08/22 07:35:06;;;;;;;10.45;4.70;;;;;;;;;;5050547;28;20126;-66
2023/08/22 07:37:32;;;;;;;11.70;5.28;;;;;;;;;;5049361;28;20043;-67
2023/08/22 07:39:59;;;;;;;11.60;4.78;;;;;;;;;;5047596;28;20032;-66
2023/08/22 07:42:25;;;;;;;10.18;4.93;;;;;;;;;;5050223;28;20028;-67
2023/08/22 07:44:51;;;;;;;14.15;5.93;;;;;;;;;;5049118;28;20162;-66
2023/08/22 07:47:17;;;;;;;10.13;5.93;;;;;;;;;;5050038;28;20059;-67
2023/08/22 07:49:43;;;;;;;10.77;5.40;;;;;;;;;;5051791;28;20814;-66
2023/08/22 07:52:09;;;;;;;9.32;5.43;;;;;;;;;;5051383;28;20522;-67
2023/08/22 07:54:35;;;;;;;9.23;5.55;;;;;;;;;;5051809;28;20040;-66
2023/08/22 07:57:01;;;;;;;8.32;4.82;;;;;;;;;;5052124;28;20032;-66
2023/08/22 07:59:27;;;;;;;9.43;5.53;;;;;;;;;;5051212;28;20148;-66
2023/08/22 08:01:54;;;;;;;11.45;5.60;;;;;;;;;;5049394;28;20071;-66
2023/08/22 08:04:20;;;;;;;9.32;5.18;;;;;;;;;;5051907;28;20038;-67
2023/08/22 08:06:47;;;;;;;10.55;5.28;;;;;;;;;;5051192;28;20027;-66
2023/08/22 08:09:13;;;;;;;10.68;4.93;;;;;;;;;;5050549;28;21127;-66
2023/08/22 08:11:39;;;;;;;8.88;4.72;;;;;;;;;;5051795;28;20056;-66
2023/08/22 08:14:06;;;;;;;8.45;4.40;;;;;;;;;;5051676;28;20754;-66
2023/08/22 08:16:32;;;;;;;7.65;3.65;;;;;;;;;;5051824;28;20032;-66
2023/08/22 08:18:59;;;;;;;9.20;4.53;;;;;;;;;;5052174;28;20031;-67
2023/08/22 08:21:25;;;;;;;6.63;3.80;;;;;;;;;;5050553;28;20131;-66
2023/08/22 08:23:51;;;;;;;11.52;5.40;;;;;;;;;;5051529;28;20024;-66
2023/08/22 08:26:17;;;;;;;9.75;3.50;;;;;;;;;;5051626;28;20058;-67
2023/08/22 08:28:43;;;;;;;8.00;3.33;;;;;;;;;;5054418;28;20032;-67
2023/08/22 08:31:09;;;;;;;10.82;3.63;;;;;;;;;;5052585;28;20044;-66
2023/08/22 08:33:36;;;;;;;5.22;2.53;;;;;;;;;;5054640;28;20082;-66
2023/08/22 08:36:03;;;;;;;8.45;2.90;;;;;;;;;;5053774;28;20060;-67
2023/08/22 08:38:30;;;;;;;8.07;2.95;;;;;;;;;;5054051;28;20880;-66
2023/08/22 08:41:00;;;;;;;6.32;2.72;;;;;;;;;;5055217;28;20032;-66
2023/08/22 08:43:26;;;;;;;12.13;2.55;;;;;;;;;;5054714;28;20085;-67
2023/08/22 08:45:52;;;;;;;4.80;1.98;;;;;;;;;;5054712;28;20119;-67
2023/08/22 08:48:19;;;;;;;5.95;2.50;;;;;;;;;;5054132;28;20668;-66
2023/08/22 08:50:48;;;;;;;4.75;2.47;;;;;;;;;;5055141;28;20033;-66
2023/08/22 08:53:14;;;;;;;4.93;1.75;;;;;;;;;;5055691;28;20040;-66
2023/08/22 08:55:40;;;;;;;3.30;1.55;;;;;;;;;;5055281;28;20031;-66
2023/08/22 08:58:08;;;;;;;5.13;1.98;;;;;;;;;;5054886;28;20466;-66
2023/08/22 09:00:34;;;;;;;5.82;1.77;;;;;;;;;;5054332;28;20028;-66
2023/08/22 09:03:00;;;;;;;9.50;2.25;;;;;;;;;;5053111;28;20032;-66
2023/08/22 09:05:29;;;;;;;5.55;2.40;;;;;;;;;;5053703;28;20070;-66
2023/08/22 09:07:55;;;;;;;5.82;2.03;;;;;;;;;;5051760;28;21452;-67
2023/08/22 09:10:34;;;;;;;6.53;2.70;;;;;;;;;;5053552;28;20059;-66
2023/08/22 09:13:04;;;;;;;9.18;2.63;;;;;;;;;;5053537;28;20118;-67
2023/08/22 09:15:30;;;;;;;6.65;2.67;;;;;;;;;;5054077;28;20030;-67
2023/08/22 09:17:57;;;;;;;6.35;2.35;;;;;;;;;;5055212;28;20043;-67
2023/08/22 09:20:29;;;;;;;6.47;2.33;;;;;;;;;;5055025;28;20600;-66
2023/08/22 09:22:55;;;;;;;7.18;2.72;;;;;;;;;;5055106;28;20035;-67
2023/08/22 09:25:21;;;;;;;5.00;2.47;;;;;;;;;;5054541;28;20048;-67
2023/08/22 09:27:58;;;;;;;5.35;2.13;;;;;;;;;;5054984;28;20580;-66
2023/08/22 09:30:24;;;;;;;5.05;2.35;;;;;;;;;;5053482;28;20068;-67
2023/08/22 09:33:00;;;;;;;8.18;2.88;;;;;;;;;;5054554;28;20024;-67
2023/08/22 09:35:30;;;;;;;5.40;2.65;;;;;;;;;;5053959;28;20028;-67
2023/08/22 09:38:05;;;;;;;9.50;3.22;;;;;;;;;;5052211;28;20032;-64
2023/08/22 09:40:31;;;;;;;7.78;3.15;;;;;;;;;;5052474;28;20737;-64
2023/08/22 09:42:57;;;;;;;5.97;3.40;;;;;;;;;;5052512;28;21931;-64
2023/08/22 09:45:24;;;;;;;6.95;3.50;;;;;;;;;;5050131;28;20183;-64
2023/08/22 09:47:52;;;;;;;8.63;4.03;;;;;;;;;;5052589;28;20035;-64
2023/08/22 09:50:18;;;;;;;7.32;4.18;;;;;;;;;;5051982;28;20036;-64
2023/08/22 09:52:45;;;;;;;10.15;3.60;;;;;;;;;;5052079;28;20031;-64
2023/08/22 09:55:12;;;;;;;8.43;3.45;;;;;;;;;;5051181;28;20036;-64
2023/08/22 09:57:38;;;;;;;8.15;3.75;;;;;;;;;;5054267;28;20038;-64
2023/08/22 10:00:05;;;;;;;8.95;3.50;;;;;;;;;;5053807;28;20028;-64
2023/08/22 10:02:33;;;;;;;8.80;4.28;;;;;;;;;;5052763;28;20058;-63
2023/08/22 10:05:00;;;;;;;9.10;3.92;;;;;;;;;;5053188;28;20063;-64
2023/08/22 10:07:26;;;;;;;11.27;4.20;;;;;;;;;;5053302;28;20107;-64
2023/08/22 10:09:53;;;;;;;7.18;3.92;;;;;;;;;;5052408;28;20086;-64
2023/08/22 10:12:19;;;;;;;7.40;3.78;;;;;;;;;;5053006;28;20046;-64
2023/08/22 10:14:50;;;;;;;9.10;3.20;;;;;;;;;;5051499;28;20634;-64
2023/08/22 10:17:16;;;;;;;6.60;3.67;;;;;;;;;;5053342;28;20071;-63
2023/08/22 10:19:43;;;;;;;8.07;3.65;;;;;;;;;;5052418;28;20529;-63
2023/08/22 10:22:13;;;;;;;10.23;3.50;;;;;;;;;;5053628;28;21408;-63
2023/08/22 10:24:40;;;;;;;6.57;3.35;;;;;;;;;;5052957;28;20036;-63
2023/08/22 10:27:07;;;;;;;8.07;3.35;;;;;;;;;;5052354;28;20112;-63
2023/08/22 10:29:35;;;;;;;8.25;3.47;;;;;;;;;;5053416;28;20122;-63
2023/08/22 10:32:01;;;;;;;7.53;2.83;;;;;;;;;;5053417;28;20694;-64
2023/08/22 10:34:39;;;;;;;10.63;3.50;;;;;;;;;;5053722;28;20031;-63
2023/08/22 10:37:15;;;;;;;6.18;3.03;;;;;;;;;;5052053;28;20503;-64
2023/08/22 10:39:45;;;;;;;7.18;2.72;;;;;;;;;;5051846;28;20067;-63
2023/08/22 10:42:13;;;;;;;6.57;2.72;;;;;;;;;;5050807;28;20042;-64
2023/08/22 10:44:40;;;;;;;8.32;3.00;;;;;;;;;;5051605;28;20035;-63
2023/08/22 10:47:07;;;;;;;7.72;2.67;;;;;;;;;;5051341;28;20044;-63
2023/08/22 10:49:34;;;;;;;8.50;2.92;;;;;;;;;;5051146;28;21169;-63
2023/08/22 10:52:04;;;;;;;4.90;2.03;;;;;;;;;;5049280;28;20191;-63
2023/08/22 10:54:31;;;;;;;5.47;2.40;;;;;;;;;;5050822;28;20119;-63
2023/08/22 10:57:15;;;;;;;6.97;2.67;;;;;;;;;;5052233;28;20036;-64
2023/08/22 11:00:00;;;;;;;7.63;3.33;;;;;;;;;;5052617;28;20036;-64
2023/08/22 11:02:28;;;;;;;6.97;2.92;;;;;;;;;;5052645;28;20035;-64
2023/08/22 11:04:58;;;;;;;7.65;2.72;;;;;;;;;;5050915;28;20081;-64
2023/08/22 11:07:25;;;;;;;5.32;1.95;;;;;;;;;;5048134;28;20025;-64
2023/08/22 11:09:51;;;;;;;5.05;1.85;;;;;;;;;;5053220;28;20068;-63
2023/08/22 11:12:21;;;;;;;4.35;1.70;;;;;;;;;;5052515;28;20032;-64
2023/08/22 11:14:47;;;;;;;4.18;1.77;;;;;;;;;;5052734;28;20036;-63
2023/08/22 11:17:17;;;;;;;5.20;1.92;;;;;;;;;;5052591;28;20078;-63
2023/08/22 11:19:43;;;;;;;5.82;2.28;;;;;;;;;;5052424;28;20151;-64
2023/08/22 11:22:10;;;;;;;5.00;2.00;;;;;;;;;;5057447;28;20043;-64
2023/08/22 11:24:37;;;;;;;5.07;1.75;;;;;;;;;;5059012;28;20067;-64
2023/08/22 11:27:06;;;;;;;5.93;1.40;;;;;;;;;;5055371;28;20643;-63
2023/08/22 11:29:43;;;;;;;4.18;1.33;;;;;;;;;;5057184;28;20465;-64
2023/08/22 11:32:24;;;;;;;3.55;0.95;;;;;;;;;;5056224;28;20032;-63
2023/08/22 11:34:52;;;;;;;3.65;1.20;;;;;;;;;;5057061;28;20996;-64
2023/08/22 11:37:19;;;;;;;3.30;0.82;;;;;;;;;;5053499;28;20097;-63
2023/08/22 11:39:46;;;;;;;4.43;0.90;;;;;;;;;;5056762;28;20035;-63
2023/08/22 11:42:13;;;;;;;7.47;1.05;;;;;;;;;;5056940;28;20029;-63
2023/08/22 11:45:21;;;;;;;2.25;0.90;;;;;;;;;;5057367;28;20028;-64
2023/08/22 11:47:51;;;;;;;4.47;1.17;;;;;;;;;;4994108;28;20049;-64
2023/08/22 11:50:19;;;;;;;4.97;1.27;;;;;;;;;;5047520;28;21753;-63
2023/08/22 11:52:46;;;;;;;2.55;1.02;;;;;;;;;;5053126;28;20035;-63
2023/08/22 11:55:16;;;;;;;4.15;1.10;;;;;;;;;;5056305;28;20040;-63
2023/08/22 11:57:43;;;;;;;5.15;1.10;;;;;;;;;;5055239;28;20035;-63
2023/08/22 12:00:12;;;;;;;5.00;1.40;;;;;;;;;;5057840;28;20122;-64
2023/08/22 12:02:42;;;;;;;4.50;1.25;;;;;;;;;;5059455;28;20276;-63
2023/08/22 12:05:09;;;;;;;4.75;1.40;;;;;;;;;;5057165;28;20035;-63
2023/08/22 12:07:44;;;;;;;4.03;1.38;;;;;;;;;;5060432;28;20036;-63
2023/08/22 12:10:12;;;;;;;5.05;1.50;;;;;;;;;;5062043;28;20467;-63
2023/08/22 12:12:38;;;;;;;4.20;1.20;;;;;;;;;;5061787;28;20447;-63
2023/08/22 12:15:05;;;;;;;5.53;1.30;;;;;;;;;;5061487;28;20031;-63
2023/08/22 12:17:31;;;;;;;6.85;1.70;;;;;;;;;;5060780;28;20043;-63
2023/08/22 12:19:57;;;;;;;2.90;1.33;;;;;;;;;;5060934;28;20109;-64
2023/08/22 12:22:23;;;;;;;5.47;1.10;;;;;;;;;;5060112;28;20032;-63
2023/08/22 12:24:49;;;;;;;5.55;1.90;;;;;;;;;;5060414;28;20035;-63
2023/08/22 12:27:15;;;;;;;4.53;1.70;;;;;;;;;;5060018;28;20056;-63
2023/08/22 12:29:42;;;;;;;5.05;2.10;;;;;;;;;;5060591;28;20039;-64
2023/08/22 12:32:08;;;;;;;5.72;2.40;;;;;;;;;;5060809;28;20043;-63
2023/08/22 12:34:36;;;;;;;5.32;2.15;;;;;;;;;;5060754;28;20135;-63
2023/08/22 12:37:02;;;;;;;6.75;1.90;;;;;;;;;;5060681;28;20674;-63
2023/08/22 12:39:28;;;;;;;7.30;1.95;;;;;;;;;;5061495;28;20040;-63
2023/08/22 12:41:54;;;;;;;5.15;2.00;;;;;;;;;;5060591;28;20052;-63
2023/08/22 12:44:20;;;;;;;6.35;2.40;;;;;;;;;;5061211;28;20033;-63
2023/08/22 12:46:46;;;;;;;7.63;3.20;;;;;;;;;;5060881;28;20440;-63
2023/08/22 12:49:12;;;;;;;5.30;1.73;;;;;;;;;;5059978;28;20028;-63
2023/08/22 12:51:38;;;;;;;7.43;3.30;;;;;;;;;;5059269;28;20039;-63
2023/08/22 12:54:05;;;;;;;6.07;3.20;;;;;;;;;;5060331;28;20043;-63
2023/08/22 12:56:31;;;;;;;9.38;3.63;;;;;;;;;;5060938;28;20154;-63
2023/08/22 12:58:57;;;;;;;7.78;2.67;;;;;;;;;;5060423;28;20127;-63
2023/08/22 13:01:23;;;;;;;6.90;2.25;;;;;;;;;;5060176;28;20059;-63
2023/08/22 13:03:53;;;;;;;4.43;1.67;;;;;;;;;;5059521;28;20113;-63
2023/08/22 13:06:19;;;;;;;6.00;2.05;;;;;;;;;;5058408;28;20034;-63
2023/08/22 13:08:45;;;;;;;5.97;1.88;;;;;;;;;;5060094;28;20074;-63
2023/08/22 13:11:11;;;;;;;7.65;2.92;;;;;;;;;;5056933;28;20051;-63
2023/08/22 13:13:38;;;;;;;4.63;1.77;;;;;;;;;;5058526;28;20505;-63
2023/08/22 13:16:05;;;;;;;5.35;1.85;;;;;;;;;;5060604;28;20852;-63
2023/08/22 13:18:31;;;;;;;6.20;2.53;;;;;;;;;;5059812;28;20036;-63
2023/08/22 13:20:57;;;;;;;8.38;2.72;;;;;;;;;;5059709;28;20036;-63
2023/08/22 13:23:25;;;;;;;7.35;1.95;;;;;;;;;;5060261;28;20041;-63
2023/08/22 13:25:54;;;;;;;4.90;2.05;;;;;;;;;;5060019;28;20044;-63
2023/08/22 13:28:20;;;;;;;6.18;1.63;;;;;;;;;;5057872;28;20733;-63
2023/08/22 13:30:46;;;;;;;6.45;2.50;;;;;;;;;;5059896;28;20042;-63
2023/08/22 13:33:12;;;;;;;5.85;2.15;;;;;;;;;;5058822;28;20038;-63
2023/08/22 13:35:38;;;;;;;7.00;2.10;;;;;;;;;;5058574;28;20029;-63
2023/08/22 13:38:04;;;;;;;6.60;2.22;;;;;;;;;;5057890;28;21312;-63
2023/08/22 13:40:31;;;;;;;8.30;2.13;;;;;;;;;;5059884;28;20040;-63
2023/08/22 13:42:58;;;;;;;5.15;1.80;;;;;;;;;;5059666;28;20031;-63
2023/08/22 13:45:24;;;;;;;7.18;2.17;;;;;;;;;;5058614;28;20067;-63
2023/08/22 13:47:54;;;;;;;7.75;2.10;;;;;;;;;;5058039;28;22064;-63
2023/08/22 13:50:20;;;;;;;6.63;2.10;;;;;;;;;;5058163;28;20115;-63
2023/08/22 13:52:46;;;;;;;5.95;1.85;;;;;;;;;;5054084;28;21777;-63
2023/08/22 13:55:12;;;;;;;8.65;1.67;;;;;;;;;;5057755;28;20041;-63
2023/08/22 13:57:39;;;;;;;5.25;1.40;;;;;;;;;;5058183;28;20111;-63
2023/08/22 14:00:05;;;;;;;5.07;1.75;;;;;;;;;;5059212;28;20070;-63
2023/08/22 14:02:31;;;;;;;7.00;1.98;;;;;;;;;;5057961;28;20040;-63
2023/08/22 14:04:57;;;;;;;5.75;1.75;;;;;;;;;;5055496;28;20033;-63
2023/08/22 14:07:24;;;;;;;5.10;1.92;;;;;;;;;;5056256;28;20498;-63
2023/08/22 14:09:50;;;;;;;6.32;1.70;;;;;;;;;;5055367;28;20039;-63
2023/08/22 14:12:16;;;;;;;5.00;1.67;;;;;;;;;;5057987;28;21445;-63
2023/08/22 14:14:42;;;;;;;7.07;1.60;;;;;;;;;;5057219;28;20040;-63
2023/08/22 14:17:08;;;;;;;5.47;1.50;;;;;;;;;;5058241;28;21048;-63
2023/08/22 14:19:34;;;;;;;6.40;1.67;;;;;;;;;;5059098;28;20028;-63
2023/08/22 14:22:00;;;;;;;6.63;1.85;;;;;;;;;;5055658;28;20024;-63
2023/08/22 14:24:26;;;;;;;6.72;1.70;;;;;;;;;;5055781;28;20131;-63
2023/08/22 14:26:52;;;;;;;4.53;1.50;;;;;;;;;;5057413;28;20144;-64
2023/08/22 14:29:19;;;;;;;5.38;1.70;;;;;;;;;;5057243;28;20034;-63
2023/08/22 14:31:45;;;;;;;5.47;1.48;;;;;;;;;;5057564;28;20805;-63
2023/08/22 14:34:12;;;;;;;2.53;1.02;;;;;;;;;;5058268;28;20080;-63
2023/08/22 14:36:38;;;;;;;5.30;1.40;;;;;;;;;;5057363;28;20028;-63
2023/08/22 14:39:04;;;;;;;3.83;1.48;;;;;;;;;;5056858;28;20166;-63